createdAt,value
2018-01-15T00:00:44.712Z,4.13
2018-01-15T00:01:44.651Z,4.05
2018-01-15T00:03:37.996Z,4.06
2018-01-15T00:04:37.968Z,3.84
2018-01-15T00:06:31.325Z,3.77
2018-01-15T00:07:31.294Z,3.74
2018-01-15T00:09:24.630Z,3.74
2018-01-15T00:10:24.606Z,3.83
2018-01-15T00:12:17.956Z,3.59
2018-01-15T00:13:17.920Z,3.62
2018-01-15T00:15:11.275Z,3.86
2018-01-15T00:16:11.246Z,3.63
2018-01-15T00:18:04.181Z,3.59
2018-01-15T00:19:04.017Z,3.63
2018-01-15T00:20:57.335Z,3.76
2018-01-15T00:21:57.335Z,3.74
2018-01-15T00:23:50.659Z,3.84
2018-01-15T00:24:50.614Z,3.87
2018-01-15T00:26:43.954Z,3.86
2018-01-15T00:27:43.892Z,3.84
2018-01-15T00:29:37.240Z,3.56
2018-01-15T00:30:37.199Z,3.59
2018-01-15T00:32:30.529Z,3.50
2018-01-15T00:33:30.500Z,3.45
2018-01-15T00:35:23.866Z,3.66
2018-01-15T00:36:23.789Z,3.77
2018-01-15T00:38:17.111Z,3.73
2018-01-15T00:39:17.081Z,3.73
2018-01-15T00:41:10.424Z,3.91
2018-01-15T00:42:10.376Z,3.87
2018-01-15T00:44:03.691Z,4.02
2018-01-15T00:45:03.672Z,4.02
2018-01-15T00:46:57.011Z,3.80
2018-01-15T00:47:56.971Z,3.92
2018-01-15T00:49:50.319Z,3.78
2018-01-15T00:50:50.261Z,3.77
2018-01-15T00:52:43.608Z,3.62
2018-01-15T00:53:43.563Z,3.77
2018-01-15T00:55:36.909Z,3.60
2018-01-15T00:56:36.858Z,3.34
2018-01-15T00:58:30.189Z,3.60
2018-01-15T00:59:30.149Z,3.58
2018-01-15T01:01:23.494Z,3.59
2018-01-15T01:02:23.450Z,3.58
2018-01-15T01:04:16.782Z,3.69
2018-01-15T01:05:16.744Z,3.58
2018-01-15T01:07:10.069Z,3.55
2018-01-15T01:08:10.039Z,3.50
2018-01-15T01:10:03.388Z,3.58
2018-01-15T01:11:03.329Z,3.69
2018-01-15T01:12:56.659Z,3.76
2018-01-15T01:13:56.647Z,3.83
2018-01-15T01:15:49.968Z,3.77
2018-01-15T01:16:49.920Z,3.62
2018-01-15T01:18:43.240Z,3.58
2018-01-15T01:19:43.224Z,3.63
2018-01-15T01:21:36.654Z,3.51
2018-01-15T01:22:36.509Z,3.50
2018-01-15T01:24:29.847Z,3.41
2018-01-15T01:25:29.801Z,3.50
2018-01-15T01:27:23.144Z,3.42
2018-01-15T01:28:23.094Z,3.34
2018-01-15T01:30:16.415Z,3.50
2018-01-15T01:31:16.386Z,3.36
2018-01-15T01:33:09.721Z,3.14
2018-01-15T01:34:09.681Z,2.95
2018-01-15T01:36:03.008Z,3.10
2018-01-15T01:37:02.978Z,3.28
2018-01-15T01:38:56.325Z,3.26
2018-01-15T01:39:56.267Z,3.19
2018-01-15T01:41:49.600Z,3.22
2018-01-15T01:42:49.573Z,3.31
2018-01-15T01:44:42.925Z,3.40
2018-01-15T01:45:42.875Z,3.18
2018-01-15T01:47:36.185Z,3.21
2018-01-15T01:48:36.159Z,3.10
2018-01-15T01:50:29.493Z,3.16
2018-01-15T01:51:29.448Z,3.16
2018-01-15T01:53:22.766Z,2.98
2018-01-15T01:54:22.740Z,2.75
2018-01-15T01:56:16.083Z,3.00
2018-01-15T01:57:16.044Z,3.11
2018-01-15T01:59:09.380Z,3.41
2018-01-15T02:00:09.341Z,3.26
2018-01-15T02:02:02.692Z,3.23
2018-01-15T02:03:02.637Z,3.21
2018-01-15T02:04:55.458Z,3.29
2018-01-15T02:05:55.430Z,3.44
2018-01-15T02:07:48.766Z,3.13
2018-01-15T02:08:48.728Z,3.25
2018-01-15T02:10:42.057Z,3.03
2018-01-15T02:11:42.063Z,3.00
2018-01-15T02:13:35.371Z,3.10
2018-01-15T02:14:35.321Z,3.19
2018-01-15T02:16:29.642Z,3.22
2018-01-15T02:17:29.626Z,3.22
2018-01-15T02:19:22.957Z,2.75
2018-01-15T02:20:22.919Z,2.64
2018-01-15T02:22:16.240Z,2.68
2018-01-15T02:23:16.213Z,2.90
2018-01-15T02:25:09.543Z,3.00
2018-01-15T02:26:09.503Z,2.71
2018-01-15T02:28:02.328Z,2.64
2018-01-15T02:29:02.297Z,2.69
2018-01-15T02:30:55.667Z,2.62
2018-01-15T02:31:55.636Z,2.67
2018-01-15T02:33:48.956Z,2.44
2018-01-15T02:34:49.009Z,2.29
2018-01-15T02:36:42.258Z,2.04
2018-01-15T02:37:42.218Z,2.35
2018-01-15T02:39:36.159Z,2.33
2018-01-15T02:40:36.124Z,2.64
2018-01-15T02:42:29.479Z,2.93
2018-01-15T02:43:29.437Z,2.64
2018-01-15T02:45:22.764Z,2.82
2018-01-15T02:46:22.744Z,2.87
2018-01-15T02:48:16.060Z,2.65
2018-01-15T02:49:16.031Z,2.64
2018-01-15T02:51:09.366Z,2.49
2018-01-15T02:52:09.343Z,2.50
2018-01-15T02:54:02.670Z,2.42
2018-01-15T02:55:02.633Z,2.28
2018-01-15T02:56:56.003Z,2.29
2018-01-15T02:57:55.980Z,2.20
2018-01-15T02:59:49.323Z,2.47
2018-01-15T03:00:49.279Z,2.61
2018-01-15T03:02:42.616Z,2.82
2018-01-15T03:03:42.579Z,2.82
2018-01-15T03:05:35.905Z,2.90
2018-01-15T03:06:35.866Z,3.00
2018-01-15T03:08:29.192Z,3.00
2018-01-15T03:09:29.167Z,3.00
2018-01-15T03:11:22.512Z,3.14
2018-01-15T03:12:22.478Z,3.19
2018-01-15T03:14:15.791Z,3.04
2018-01-15T03:15:15.765Z,2.77
2018-01-15T03:17:09.121Z,3.00
2018-01-15T03:18:09.067Z,3.07
2018-01-15T03:20:02.381Z,3.08
2018-01-15T03:21:02.357Z,3.21
2018-01-15T03:22:55.710Z,3.23
2018-01-15T03:23:55.661Z,3.28
2018-01-15T03:25:48.982Z,3.42
2018-01-15T03:26:48.960Z,3.25
2018-01-15T03:28:42.335Z,3.00
2018-01-15T03:29:42.254Z,3.03
2018-01-15T03:31:35.592Z,3.13
2018-01-15T03:32:35.553Z,3.19
2018-01-15T03:34:28.996Z,3.22
2018-01-15T03:35:28.857Z,3.22
2018-01-15T03:37:22.177Z,3.32
2018-01-15T03:38:22.163Z,3.13
2018-01-15T03:40:15.496Z,3.13
2018-01-15T03:41:15.467Z,3.14
2018-01-15T03:43:08.782Z,3.16
2018-01-15T03:44:08.775Z,3.18
2018-01-15T03:46:02.109Z,3.28
2018-01-15T03:47:02.063Z,3.29
2018-01-15T03:48:55.391Z,3.45
2018-01-15T03:49:55.367Z,3.23
2018-01-15T03:51:48.702Z,3.25
2018-01-15T03:52:48.663Z,3.37
2018-01-15T03:54:41.976Z,3.45
2018-01-15T03:55:41.951Z,3.53
2018-01-15T03:57:35.310Z,3.56
2018-01-15T03:58:35.256Z,3.70
2018-01-15T04:00:28.575Z,3.47
2018-01-15T04:01:28.551Z,3.40
2018-01-15T04:03:21.903Z,3.29
2018-01-15T04:04:21.864Z,3.26
2018-01-15T04:06:15.180Z,3.48
2018-01-15T04:07:15.154Z,3.53
2018-01-15T04:09:08.493Z,3.55
2018-01-15T04:10:08.458Z,3.73
2018-01-15T04:12:01.274Z,3.55
2018-01-15T04:13:01.253Z,3.65
2018-01-15T04:14:54.584Z,3.59
2018-01-15T04:15:54.565Z,3.31
2018-01-15T04:17:47.863Z,3.37
2018-01-15T04:18:47.841Z,3.37
2018-01-15T04:20:41.189Z,3.84
2018-01-15T04:21:41.142Z,3.99
2018-01-15T04:23:34.465Z,3.86
2018-01-15T04:24:34.459Z,3.77
2018-01-15T04:26:27.778Z,3.80
2018-01-15T04:27:27.739Z,3.81
2018-01-15T04:29:20.564Z,3.92
2018-01-15T04:30:20.535Z,3.73
2018-01-15T04:32:13.883Z,3.78
2018-01-15T04:33:13.836Z,3.62
2018-01-15T04:35:07.170Z,3.51
2018-01-15T04:36:07.140Z,3.59
2018-01-15T04:38:00.481Z,3.73
2018-01-15T04:39:00.440Z,3.66
2018-01-15T04:40:53.754Z,3.41
2018-01-15T04:41:53.734Z,3.23
2018-01-15T04:43:47.076Z,3.26
2018-01-15T04:44:47.030Z,3.22
2018-01-15T04:46:40.348Z,3.18
2018-01-15T04:47:40.330Z,3.10
2018-01-15T04:49:33.664Z,3.01
2018-01-15T04:50:33.624Z,3.13
2018-01-15T04:52:26.945Z,3.41
2018-01-15T04:53:26.931Z,3.47
2018-01-15T04:55:20.273Z,3.58
2018-01-15T04:56:20.226Z,3.45
2018-01-15T04:58:13.551Z,3.62
2018-01-15T04:59:13.529Z,3.62
2018-01-15T05:01:06.870Z,3.62
2018-01-15T05:02:06.828Z,3.62
2018-01-15T05:04:00.160Z,3.66
2018-01-15T05:05:00.134Z,3.73
2018-01-15T05:06:53.474Z,3.78
2018-01-15T05:07:53.425Z,3.63
2018-01-15T05:09:46.750Z,3.63
2018-01-15T05:10:46.720Z,3.63
2018-01-15T05:12:40.081Z,3.59
2018-01-15T05:13:40.038Z,3.58
2018-01-15T05:15:33.353Z,3.60
2018-01-15T05:16:33.329Z,3.44
2018-01-15T05:18:26.659Z,3.44
2018-01-15T05:19:26.620Z,3.59
2018-01-15T05:21:19.968Z,3.51
2018-01-15T05:22:19.920Z,3.50
2018-01-15T05:24:13.257Z,3.31
2018-01-15T05:25:13.221Z,3.31
2018-01-15T05:27:06.545Z,3.44
2018-01-15T05:28:06.518Z,3.44
2018-01-15T05:29:59.851Z,3.50
2018-01-15T05:30:59.810Z,3.42
2018-01-15T05:32:52.635Z,3.44
2018-01-15T05:33:52.606Z,3.42
2018-01-15T05:35:45.937Z,3.41
2018-01-15T05:36:45.898Z,3.44
2018-01-15T05:38:38.735Z,3.42
2018-01-15T05:39:38.713Z,3.42
2018-01-15T05:41:32.065Z,3.41
2018-01-15T05:42:32.008Z,3.22
2018-01-15T05:44:25.329Z,3.29
2018-01-15T05:45:25.302Z,3.26
2018-01-15T05:47:18.639Z,3.28
2018-01-15T05:48:18.595Z,3.14
2018-01-15T05:50:11.929Z,3.07
2018-01-15T05:51:11.907Z,3.14
2018-01-15T05:53:04.742Z,3.19
2018-01-15T05:54:04.703Z,3.18
2018-01-15T05:55:58.036Z,3.03
2018-01-15T05:56:57.995Z,2.92
2018-01-15T05:58:51.325Z,3.08
2018-01-15T05:59:51.284Z,3.16
2018-01-15T06:01:44.612Z,3.04
2018-01-15T06:02:44.588Z,3.07
2018-01-15T06:04:37.428Z,2.97
2018-01-15T06:05:37.385Z,3.18
2018-01-15T06:07:30.708Z,3.16
2018-01-15T06:08:30.677Z,3.14
2018-01-15T06:10:24.024Z,3.04
2018-01-15T06:11:23.973Z,3.22
2018-01-15T06:13:17.300Z,3.25
2018-01-15T06:14:17.275Z,3.18
2018-01-15T06:16:10.106Z,2.98
2018-01-15T06:17:10.081Z,2.69
2018-01-15T06:19:03.392Z,3.01
2018-01-15T06:20:03.362Z,3.13
2018-01-15T06:21:56.698Z,3.25
2018-01-15T06:22:56.666Z,3.18
2018-01-15T06:24:49.977Z,3.37
2018-01-15T06:25:49.954Z,3.41
2018-01-15T06:27:43.287Z,3.41
2018-01-15T06:28:43.240Z,3.37
2018-01-15T06:30:36.579Z,3.37
2018-01-15T06:31:36.542Z,3.59
2018-01-15T06:33:29.894Z,3.44
2018-01-15T06:34:29.850Z,3.41
2018-01-15T06:36:23.166Z,3.53
2018-01-15T06:37:23.144Z,3.59
2018-01-15T06:39:16.471Z,3.47
2018-01-15T06:40:16.433Z,3.41
2018-01-15T06:42:09.750Z,3.13
2018-01-15T06:43:09.723Z,3.22
2018-01-15T06:45:03.098Z,3.36
2018-01-15T06:46:03.027Z,3.47
2018-01-15T06:47:56.347Z,3.47
2018-01-15T06:48:56.319Z,3.25
2018-01-15T06:50:49.162Z,3.41
2018-01-15T06:51:49.114Z,3.45
2018-01-15T06:53:42.433Z,3.55
2018-01-15T06:54:42.407Z,3.47
2018-01-15T06:56:35.747Z,3.50
2018-01-15T06:57:35.710Z,3.41
2018-01-15T06:59:29.020Z,3.41
2018-01-15T07:00:28.993Z,3.48
2018-01-15T07:02:22.342Z,3.59
2018-01-15T07:03:22.304Z,3.50
2018-01-15T07:05:15.630Z,3.47
2018-01-15T07:06:15.602Z,3.48
2018-01-15T07:08:08.935Z,3.55
2018-01-15T07:09:08.890Z,3.50
2018-01-15T07:11:02.228Z,3.50
2018-01-15T07:12:02.195Z,3.26
2018-01-15T07:13:55.548Z,3.31
2018-01-15T07:14:55.500Z,3.40
2018-01-15T07:16:48.326Z,3.34
2018-01-15T07:17:48.307Z,3.60
2018-01-15T07:19:41.661Z,3.66
2018-01-15T07:20:41.601Z,3.63
2018-01-15T07:22:34.441Z,3.50
2018-01-15T07:23:34.397Z,3.60
2018-01-15T07:25:27.244Z,3.55
2018-01-15T07:26:27.203Z,3.65
2018-01-15T07:28:20.626Z,3.74
2018-01-15T07:29:20.494Z,3.68
2018-01-15T07:31:13.825Z,3.59
2018-01-15T07:32:13.791Z,3.77
2018-01-15T07:34:07.109Z,3.77
2018-01-15T07:35:07.081Z,3.95
2018-01-15T07:37:00.419Z,3.94
2018-01-15T07:38:00.372Z,3.88
2018-01-15T07:39:53.695Z,3.73
2018-01-15T07:40:53.668Z,3.84
2018-01-15T07:42:47.007Z,4.02
2018-01-15T07:43:46.968Z,3.99
2018-01-15T07:45:40.889Z,4.01
2018-01-15T07:46:40.260Z,4.01
2018-01-15T07:48:33.102Z,3.94
2018-01-15T07:49:33.058Z,4.10
2018-01-15T07:51:26.378Z,4.23
2018-01-15T07:52:26.349Z,4.19
2018-01-15T07:54:19.688Z,4.08
2018-01-15T07:55:19.644Z,4.12
2018-01-15T07:57:13.971Z,4.19
2018-01-15T07:58:13.946Z,4.20
2018-01-15T08:00:07.301Z,4.08
2018-01-15T08:01:07.275Z,4.16
2018-01-15T08:03:00.090Z,4.22
2018-01-15T08:04:00.058Z,4.34
2018-01-15T08:05:53.410Z,4.45
2018-01-15T08:06:53.354Z,4.38
2018-01-15T08:08:46.691Z,4.40
2018-01-15T08:09:46.660Z,4.44
2018-01-15T08:11:39.991Z,4.22
2018-01-15T08:12:39.954Z,4.24
2018-01-15T08:14:33.269Z,4.41
2018-01-15T08:15:33.246Z,4.41
2018-01-15T08:17:26.575Z,4.40
2018-01-15T08:18:26.538Z,4.48
2018-01-15T08:20:19.854Z,4.45
2018-01-15T08:21:19.834Z,4.55
2018-01-15T08:23:13.180Z,4.56
2018-01-15T08:24:13.129Z,4.56
2018-01-15T08:26:06.460Z,4.55
2018-01-15T08:27:06.433Z,4.59
2018-01-15T08:28:59.800Z,4.59
2018-01-15T08:29:59.748Z,4.67
2018-01-15T08:31:53.070Z,4.70
2018-01-15T08:32:53.090Z,4.70
2018-01-15T08:34:46.373Z,4.60
2018-01-15T08:35:46.328Z,4.60
2018-01-15T08:37:39.662Z,4.73
2018-01-15T08:38:39.636Z,4.63
2018-01-15T08:40:32.991Z,4.78
2018-01-15T08:41:32.945Z,4.82
2018-01-15T08:43:26.270Z,4.70
2018-01-15T08:44:26.243Z,4.66
2018-01-15T08:46:19.595Z,4.84
2018-01-15T08:47:19.542Z,4.71
2018-01-15T08:49:12.876Z,4.70
2018-01-15T08:50:12.848Z,4.84
2018-01-15T08:52:06.786Z,4.84
2018-01-15T08:53:06.145Z,4.82
2018-01-15T08:54:59.469Z,4.84
2018-01-15T08:55:59.445Z,4.78
2018-01-15T08:57:52.775Z,4.80
2018-01-15T08:58:52.735Z,4.68
2018-01-15T09:00:46.070Z,4.68
2018-01-15T09:01:46.050Z,4.73
2018-01-15T09:03:39.380Z,4.90
2018-01-15T09:04:39.338Z,4.86
2018-01-15T09:06:32.658Z,4.92
2018-01-15T09:07:32.631Z,5.00
2018-01-15T09:09:25.986Z,5.02
2018-01-15T09:10:25.926Z,5.15
2018-01-15T09:12:19.249Z,4.87
2018-01-15T09:13:19.221Z,4.82
2018-01-15T09:15:12.557Z,4.86
2018-01-15T09:16:12.532Z,4.78
2018-01-15T09:18:05.866Z,4.89
2018-01-15T09:19:05.815Z,4.90
2018-01-15T09:20:59.264Z,4.74
2018-01-15T09:21:59.100Z,4.90
2018-01-15T09:23:52.442Z,4.75
2018-01-15T09:24:52.414Z,4.80
2018-01-15T09:26:45.802Z,4.86
2018-01-15T09:27:45.707Z,4.78
2018-01-15T09:29:39.633Z,4.73
2018-01-15T09:30:39.002Z,4.60
2018-01-15T09:32:32.356Z,4.66
2018-01-15T09:33:32.309Z,4.82
2018-01-15T09:35:25.642Z,4.92
2018-01-15T09:36:25.612Z,4.94
2018-01-15T09:38:18.947Z,4.94
2018-01-15T09:39:18.905Z,4.97
2018-01-15T09:41:12.228Z,4.92
2018-01-15T09:42:12.205Z,4.93
2018-01-15T09:44:05.541Z,4.97
2018-01-15T09:45:05.507Z,4.97
2018-01-15T09:46:58.825Z,5.12
2018-01-15T09:47:58.800Z,5.14
2018-01-15T09:49:51.644Z,5.28
2018-01-15T09:50:51.600Z,5.23
2018-01-15T09:52:44.424Z,5.15
2018-01-15T09:53:44.409Z,4.99
2018-01-15T09:55:37.742Z,5.05
2018-01-15T09:56:37.702Z,5.07
2018-01-15T09:58:31.024Z,4.96
2018-01-15T09:59:30.998Z,5.15
2018-01-15T10:01:24.398Z,5.08
2018-01-15T10:02:24.296Z,5.12
2018-01-15T10:04:17.725Z,5.17
2018-01-15T10:05:17.588Z,5.10
2018-01-15T10:07:10.929Z,5.02
2018-01-15T10:08:10.891Z,5.05
2018-01-15T10:10:04.212Z,5.00
2018-01-15T10:11:04.178Z,4.96
2018-01-15T10:12:57.510Z,5.21
2018-01-15T10:13:57.479Z,5.18
2018-01-15T10:15:50.802Z,5.33
2018-01-15T10:16:50.773Z,5.14
2018-01-15T10:18:44.109Z,5.17
2018-01-15T10:19:44.073Z,5.17
2018-01-15T10:21:37.395Z,5.20
2018-01-15T10:22:37.369Z,5.23
2018-01-15T10:24:30.704Z,5.33
2018-01-15T10:25:30.664Z,5.23
2018-01-15T10:27:23.983Z,5.20
2018-01-15T10:28:23.959Z,5.17
2018-01-15T10:30:17.302Z,5.08
2018-01-15T10:31:17.265Z,4.97
2018-01-15T10:33:10.582Z,5.08
2018-01-15T10:34:10.549Z,5.18
2018-01-15T10:36:03.887Z,5.43
2018-01-15T10:37:03.840Z,5.41
2018-01-15T10:38:57.182Z,5.53
2018-01-15T10:39:57.148Z,5.50
2018-01-15T10:41:50.498Z,5.65
2018-01-15T10:42:50.449Z,5.50
2018-01-15T10:44:43.775Z,5.54
2018-01-15T10:45:43.752Z,5.46
2018-01-15T10:47:37.102Z,5.48
2018-01-15T10:48:37.051Z,5.47
2018-01-15T10:50:30.379Z,5.35
2018-01-15T10:51:30.345Z,5.44
2018-01-15T10:53:23.710Z,5.65
2018-01-15T10:54:23.663Z,5.79
2018-01-15T10:56:16.996Z,5.50
2018-01-15T10:57:16.975Z,5.46
2018-01-15T10:59:10.303Z,5.69
2018-01-15T11:00:10.267Z,5.61
2018-01-15T11:02:03.585Z,5.69
2018-01-15T11:03:03.565Z,5.80
2018-01-15T11:04:56.899Z,5.97
2018-01-15T11:05:56.854Z,5.94
2018-01-15T11:07:50.219Z,6.11
2018-01-15T11:08:50.159Z,6.14
2018-01-15T11:10:43.517Z,6.38
2018-01-15T11:11:43.474Z,6.39
2018-01-15T11:13:36.886Z,6.24
2018-01-15T11:14:36.772Z,6.17
2018-01-15T11:16:30.121Z,6.33
2018-01-15T11:17:30.074Z,6.41
2018-01-15T11:19:23.400Z,6.49
2018-01-15T11:20:23.376Z,6.63
2018-01-15T11:22:16.719Z,6.41
2018-01-15T11:23:16.678Z,6.48
2018-01-15T11:25:09.999Z,6.62
2018-01-15T11:26:09.977Z,6.51
2018-01-15T11:28:03.312Z,6.69
2018-01-15T11:29:03.270Z,6.72
2018-01-15T11:30:56.604Z,6.79
2018-01-15T11:31:56.566Z,6.78
2018-01-15T11:33:49.910Z,6.89
2018-01-15T11:34:49.867Z,6.93
2018-01-15T11:36:43.180Z,6.79
2018-01-15T11:37:43.173Z,6.75
2018-01-15T11:39:36.499Z,6.82
2018-01-15T11:40:36.465Z,6.77
2018-01-15T11:42:29.800Z,7.05
2018-01-15T11:43:29.763Z,6.88
2018-01-15T11:45:23.103Z,6.59
2018-01-15T11:46:23.059Z,6.60
2018-01-15T11:48:16.415Z,6.67
2018-01-15T11:49:16.360Z,6.62
2018-01-15T11:51:09.710Z,6.62
2018-01-15T11:52:09.669Z,6.72
2018-01-15T11:54:02.992Z,6.72
2018-01-15T11:55:02.960Z,6.56
2018-01-15T11:56:56.310Z,6.52
2018-01-15T11:57:56.275Z,6.62
2018-01-15T11:59:49.593Z,6.42
2018-01-15T12:00:49.576Z,6.44
2018-01-15T12:02:42.909Z,6.46
2018-01-15T12:03:42.878Z,6.49
2018-01-15T12:05:36.209Z,6.44
2018-01-15T12:06:36.178Z,6.35
2018-01-15T12:08:29.513Z,6.42
2018-01-15T12:09:29.474Z,6.66
2018-01-15T12:11:22.819Z,6.45
2018-01-15T12:12:22.798Z,6.57
2018-01-15T12:14:16.129Z,6.51
2018-01-15T12:15:16.085Z,6.45
2018-01-15T12:17:09.413Z,6.70
2018-01-15T12:18:09.395Z,6.79
2018-01-15T12:20:02.730Z,6.84
2018-01-15T12:21:02.733Z,6.92
2018-01-15T12:22:56.016Z,6.89
2018-01-15T12:23:55.982Z,6.97
2018-01-15T12:25:49.349Z,7.11
2018-01-15T12:26:49.291Z,7.20
2018-01-15T12:28:42.633Z,7.24
2018-01-15T12:29:42.598Z,7.21
2018-01-15T12:31:35.948Z,7.06
2018-01-15T12:32:35.901Z,7.00
2018-01-15T12:34:29.222Z,7.06
2018-01-15T12:35:29.201Z,7.15
2018-01-15T12:37:22.540Z,7.29
2018-01-15T12:38:22.502Z,7.15
2018-01-15T12:40:15.842Z,7.29
2018-01-15T12:41:15.823Z,7.33
2018-01-15T12:43:09.157Z,7.25
2018-01-15T12:44:09.129Z,7.13
2018-01-15T12:46:02.439Z,7.47
2018-01-15T12:47:02.424Z,7.18
2018-01-15T12:48:55.754Z,7.36
2018-01-15T12:49:55.715Z,7.54
2018-01-15T12:51:49.050Z,7.57
2018-01-15T12:52:49.018Z,7.45
2018-01-15T12:54:42.370Z,7.35
2018-01-15T12:55:42.322Z,7.50
2018-01-15T12:57:35.652Z,7.45
2018-01-15T12:58:35.627Z,7.47
2018-01-15T13:00:28.974Z,7.32
2018-01-15T13:01:28.923Z,7.32
2018-01-15T13:03:22.358Z,7.31
2018-01-15T13:04:22.318Z,7.18
2018-01-15T13:06:15.696Z,7.25
2018-01-15T13:07:15.704Z,7.28
2018-01-15T13:09:08.951Z,7.36
2018-01-15T13:10:08.905Z,7.35
2018-01-15T13:12:02.254Z,7.51
2018-01-15T13:13:02.217Z,7.53
2018-01-15T13:14:55.542Z,7.38
2018-01-15T13:15:55.518Z,7.25
2018-01-15T13:17:48.858Z,7.58
2018-01-15T13:18:48.820Z,7.45
2018-01-15T13:20:42.147Z,7.57
2018-01-15T13:21:42.124Z,7.50
2018-01-15T13:23:35.521Z,7.45
2018-01-15T13:24:35.423Z,7.66
2018-01-15T13:26:28.742Z,7.53
2018-01-15T13:27:28.713Z,7.56
2018-01-15T13:29:22.064Z,7.42
2018-01-15T13:30:22.021Z,7.42
2018-01-15T13:32:15.353Z,7.28
2018-01-15T13:33:15.330Z,7.17
2018-01-15T13:35:08.680Z,7.21
2018-01-15T13:36:08.652Z,7.23
2018-01-15T13:38:01.982Z,7.17
2018-01-15T13:39:01.947Z,7.13
2018-01-15T13:40:55.284Z,7.28
2018-01-15T13:41:55.249Z,7.25
2018-01-15T13:43:48.571Z,7.21
2018-01-15T13:44:48.557Z,7.29
2018-01-15T13:46:41.897Z,7.13
2018-01-15T13:47:41.864Z,7.24
2018-01-15T13:49:35.187Z,7.33
2018-01-15T13:50:35.161Z,7.39
2018-01-15T13:52:28.497Z,7.33
2018-01-15T13:53:28.498Z,7.21
2018-01-15T13:55:21.787Z,7.35
2018-01-15T13:56:21.757Z,7.38
2018-01-15T13:58:15.103Z,7.47
2018-01-15T13:59:15.059Z,7.39
2018-01-15T14:01:08.393Z,7.47
2018-01-15T14:02:08.372Z,7.53
2018-01-15T14:04:01.713Z,7.50
2018-01-15T14:05:01.675Z,7.61
2018-01-15T14:06:55.010Z,7.72
2018-01-15T14:07:55.018Z,7.80
2018-01-15T14:09:49.326Z,8.05
2018-01-15T14:10:49.284Z,8.00
2018-01-15T14:12:42.615Z,8.00
2018-01-15T14:13:42.585Z,8.03
2018-01-15T14:15:35.952Z,8.09
2018-01-15T14:16:35.918Z,8.06
2018-01-15T14:18:29.239Z,8.15
2018-01-15T14:19:29.216Z,8.15
2018-01-15T14:21:22.564Z,8.37
2018-01-15T14:22:22.524Z,8.31
2018-01-15T14:24:15.862Z,8.34
2018-01-15T14:25:15.831Z,8.36
2018-01-15T14:27:09.172Z,8.28
2018-01-15T14:28:09.136Z,8.27
2018-01-15T14:30:02.463Z,8.48
2018-01-15T14:31:02.436Z,8.42
2018-01-15T14:32:55.783Z,8.42
2018-01-15T14:33:55.756Z,8.51
2018-01-15T14:35:49.095Z,8.45
2018-01-15T14:36:49.053Z,8.41
2018-01-15T14:38:42.407Z,8.27
2018-01-15T14:39:42.366Z,8.28
2018-01-15T14:41:35.679Z,8.10
2018-01-15T14:42:35.675Z,8.19
2018-01-15T14:44:29.018Z,8.12
2018-01-15T14:45:28.960Z,8.09
2018-01-15T14:47:22.277Z,8.09
2018-01-15T14:48:22.261Z,8.01
2018-01-15T14:50:15.706Z,7.91
2018-01-15T14:51:15.592Z,7.94
2018-01-15T14:53:08.881Z,8.12
2018-01-15T14:54:08.865Z,7.97
2018-01-15T14:56:02.215Z,7.93
2018-01-15T14:57:02.172Z,8.05
2018-01-15T14:58:55.494Z,8.01
2018-01-15T14:59:55.473Z,8.09
2018-01-15T15:01:48.823Z,7.79
2018-01-15T15:02:48.780Z,7.75
2018-01-15T15:04:42.107Z,7.76
2018-01-15T15:05:42.086Z,7.75
2018-01-15T15:07:35.441Z,7.93
2018-01-15T15:08:35.404Z,7.94
2018-01-15T15:10:28.730Z,7.87
2018-01-15T15:11:28.709Z,7.87
2018-01-15T15:13:22.651Z,7.70
2018-01-15T15:14:22.044Z,7.73
2018-01-15T15:16:15.342Z,7.69
2018-01-15T15:17:15.368Z,7.63
2018-01-15T15:19:08.651Z,7.70
2018-01-15T15:20:08.620Z,7.77
2018-01-15T15:22:01.942Z,7.76
2018-01-15T15:23:01.923Z,7.85
2018-01-15T15:24:55.256Z,7.76
2018-01-15T15:25:55.210Z,7.85
2018-01-15T15:27:48.555Z,7.83
2018-01-15T15:28:48.516Z,7.91
2018-01-15T15:30:41.850Z,7.97
2018-01-15T15:31:41.820Z,8.03
2018-01-15T15:33:35.146Z,7.91
2018-01-15T15:34:35.122Z,8.01
2018-01-15T15:36:28.478Z,8.09
2018-01-15T15:37:28.453Z,8.15
2018-01-15T15:39:21.760Z,8.09
2018-01-15T15:40:21.744Z,8.24
2018-01-15T15:42:15.083Z,8.20
2018-01-15T15:43:15.043Z,8.24
2018-01-15T15:45:08.379Z,8.13
2018-01-15T15:46:08.371Z,8.01
2018-01-15T15:48:01.690Z,8.12
2018-01-15T15:49:01.637Z,8.13
2018-01-15T15:50:54.972Z,8.05
2018-01-15T15:51:54.951Z,7.97
2018-01-15T15:53:48.284Z,8.16
2018-01-15T15:54:48.239Z,8.13
2018-01-15T15:56:41.077Z,8.12
2018-01-15T15:57:41.047Z,8.13
2018-01-15T15:59:33.930Z,8.09
2018-01-15T16:00:33.865Z,8.09
2018-01-15T16:02:26.701Z,8.18
2018-01-15T16:03:26.675Z,8.27
2018-01-15T16:05:20.011Z,8.41
2018-01-15T16:06:19.971Z,8.34
2018-01-15T16:08:13.340Z,8.37
2018-01-15T16:09:13.292Z,8.45
2018-01-15T16:11:06.216Z,8.51
2018-01-15T16:12:06.103Z,8.55
2018-01-15T16:13:59.433Z,8.66
2018-01-15T16:14:59.404Z,8.67
2018-01-15T16:16:52.748Z,8.64
2018-01-15T16:17:52.711Z,8.76
2018-01-15T16:19:46.057Z,8.71
2018-01-15T16:20:46.038Z,8.88
2018-01-15T16:22:39.409Z,8.94
2018-01-15T16:23:39.331Z,8.85
2018-01-15T16:25:32.660Z,8.91
2018-01-15T16:26:32.636Z,8.92
2018-01-15T16:28:25.977Z,9.03
2018-01-15T16:29:25.934Z,8.99
2018-01-15T16:31:19.278Z,8.81
2018-01-15T16:32:19.248Z,8.85
2018-01-15T16:34:12.586Z,8.79
2018-01-15T16:35:12.560Z,8.87
2018-01-15T16:37:05.391Z,8.91
2018-01-15T16:38:05.353Z,8.99
2018-01-15T16:39:58.687Z,9.02
2018-01-15T16:40:58.665Z,9.02
2018-01-15T16:42:51.973Z,8.92
2018-01-15T16:43:51.951Z,9.00
2018-01-15T16:45:45.300Z,9.02
2018-01-15T16:46:45.264Z,8.99
2018-01-15T16:48:38.588Z,9.03
2018-01-15T16:49:38.568Z,9.04
2018-01-15T16:51:31.914Z,8.99
2018-01-15T16:52:31.872Z,9.08
2018-01-15T16:54:25.186Z,9.00
2018-01-15T16:55:25.171Z,9.08
2018-01-15T16:57:18.524Z,9.16
2018-01-15T16:58:18.480Z,9.22
2018-01-15T17:00:11.808Z,9.13
2018-01-15T17:01:11.792Z,9.13
2018-01-15T17:03:05.163Z,9.18
2018-01-15T17:04:05.093Z,9.11
2018-01-15T17:05:58.433Z,9.21
2018-01-15T17:06:58.412Z,9.14
2018-01-15T17:08:51.849Z,9.22
2018-01-15T17:09:51.707Z,9.29
2018-01-15T17:11:44.565Z,9.26
2018-01-15T17:12:44.521Z,9.34
2018-01-15T17:14:37.608Z,9.31
2018-01-15T17:15:37.529Z,9.37
2018-01-15T17:17:30.850Z,9.37
2018-01-15T17:18:30.831Z,9.26
2018-01-15T17:20:24.175Z,9.44
2018-01-15T17:21:24.139Z,9.41
2018-01-15T17:23:17.465Z,9.40
2018-01-15T17:24:17.444Z,9.41
2018-01-15T17:26:10.297Z,9.40
2018-01-15T17:27:10.249Z,9.43
2018-01-15T17:29:03.576Z,9.40
2018-01-15T17:30:03.549Z,9.34
2018-01-15T17:31:56.906Z,9.29
2018-01-15T17:32:56.868Z,9.31
2018-01-15T17:34:50.224Z,9.40
2018-01-15T17:35:50.193Z,9.28
2018-01-15T17:37:43.529Z,9.36
2018-01-15T17:38:43.490Z,9.25
2018-01-15T17:40:36.825Z,9.22
2018-01-15T17:41:36.797Z,9.26
2018-01-15T17:43:30.177Z,9.29
2018-01-15T17:44:30.097Z,9.26
2018-01-15T17:46:23.415Z,9.22
2018-01-15T17:47:23.403Z,9.18
2018-01-15T17:49:16.845Z,9.18
2018-01-15T17:50:16.692Z,9.18
2018-01-15T17:52:10.029Z,9.03
2018-01-15T17:53:10.008Z,9.03
2018-01-15T17:55:03.356Z,9.00
2018-01-15T17:56:03.319Z,8.95
2018-01-15T17:57:56.142Z,9.04
2018-01-15T17:58:56.118Z,9.00
2018-01-15T18:00:49.452Z,8.89
2018-01-15T18:01:49.422Z,8.95
2018-01-15T18:03:42.740Z,8.85
2018-01-15T18:04:42.725Z,8.78
2018-01-15T18:06:35.573Z,8.76
2018-01-15T18:07:35.554Z,8.58
2018-01-15T18:09:28.860Z,8.51
2018-01-15T18:10:28.834Z,8.51
2018-01-15T18:12:22.176Z,8.48
2018-01-15T18:13:22.142Z,8.20
2018-01-15T18:15:15.469Z,8.16
2018-01-15T18:16:15.448Z,8.19
2018-01-15T18:18:08.787Z,8.34
2018-01-15T18:19:08.745Z,8.33
2018-01-15T18:21:02.094Z,8.12
2018-01-15T18:22:02.076Z,8.01
2018-01-15T18:23:55.405Z,8.10
2018-01-15T18:24:55.354Z,8.10
2018-01-15T18:26:48.687Z,8.10
2018-01-15T18:27:48.659Z,8.26
2018-01-15T18:29:42.001Z,8.33
2018-01-15T18:30:41.965Z,8.41
2018-01-15T18:32:35.282Z,8.34
2018-01-15T18:33:35.265Z,8.15
2018-01-15T18:35:28.602Z,8.20
2018-01-15T18:36:28.560Z,8.18
2018-01-15T18:38:21.891Z,8.09
2018-01-15T18:39:21.872Z,8.18
2018-01-15T18:41:15.236Z,8.10
2018-01-15T18:42:15.172Z,8.05
2018-01-15T18:44:08.493Z,8.12
2018-01-15T18:45:08.477Z,8.16
2018-01-15T18:47:01.813Z,8.09
2018-01-15T18:48:01.794Z,8.03
2018-01-15T18:49:55.281Z,7.98
2018-01-15T18:50:55.228Z,8.27
2018-01-15T18:52:48.497Z,7.97
2018-01-15T18:53:48.445Z,7.94
2018-01-15T18:55:41.811Z,7.95
2018-01-15T18:56:41.765Z,7.97
2018-01-15T18:58:35.178Z,8.05
2018-01-15T18:59:35.082Z,7.95
2018-01-15T19:01:28.449Z,7.95
2018-01-15T19:02:28.413Z,8.01
2018-01-15T19:04:21.283Z,8.06
2018-01-15T19:05:21.258Z,8.08
2018-01-15T19:07:14.560Z,8.19
2018-01-15T19:08:14.527Z,8.12
2018-01-15T19:10:08.093Z,8.09
2018-01-15T19:11:07.827Z,8.13
2018-01-15T19:13:01.258Z,8.09